Observation data for Seagraves on 09/12/2017      Previous  Date       Current Mesonet Observations  Soil Data  Daily Summary Page  Observations in Plain Language
KSGV 120500Z 00000KT 17/11 A3014 RMK A01 T01660106  RH  069%=      5-min Rain = 0
KSGV 120505Z 00000KT 17/11 A3014 RMK A01 T01660111  RH  071%=      5-min Rain = 0
KSGV 120510Z 32001KT 17/12 A3014 RMK A01 T01670117  RH  074%=      5-min Rain = 0
KSGV 120515Z 32003KT 17/12 A3014 RMK A01 T01650116  RH  074%=      5-min Rain = 0
KSGV 120520Z 32002KT 16/12 A3014 RMK A01 T01630117  RH  076%=      5-min Rain = 0
KSGV 120525Z 32002KT 16/12 A3014 RMK A01 T01620116  RH  075%=      5-min Rain = 0
KSGV 120530Z 31002KT 16/11 A3014 RMK A01 T01620114  RH  075%=      5-min Rain = 0
KSGV 120535Z 28003KT 16/11 A3013 RMK A01 T01600109  RH  073%=      5-min Rain = 0
KSGV 120540Z 28003KT 16/11 A3013 RMK A01 T01580106  RH  072%=      5-min Rain = 0
KSGV 120545Z 28003KT 16/10 A3013 RMK A01 T01580103  RH  071%=      5-min Rain = 0
KSGV 120550Z 28003KT 16/10 A3014 RMK A01 T01580104  RH  071%=      5-min Rain = 0
KSGV 120555Z 29004KT 16/11 A3013 RMK A01 T01570107  RH  073%=      5-min Rain = 0
KSGV 120600Z 28004KT 16/11 A3013 RMK A01 T01590110  RH  074%=      5-min Rain = 0
KSGV 120605Z 29003KT 16/11 A3013 RMK A01 T01610112  RH  074%=      5-min Rain = 0
KSGV 120610Z 30003KT 16/12 A3013 RMK A01 T01620117  RH  076%=      5-min Rain = 0
KSGV 120615Z 30004KT 16/11 A3013 RMK A01 T01620113  RH  074%=      5-min Rain = 0
KSGV 120620Z 30004KT 16/11 A3012 RMK A01 T01630111  RH  073%=      5-min Rain = 0
KSGV 120625Z 30004KT 16/11 A3012 RMK A01 T01620110  RH  073%=      5-min Rain = 0
KSGV 120630Z 30004KT 16/11 A3012 RMK A01 T01610111  RH  073%=      5-min Rain = 0
KSGV 120635Z 30004KT 16/11 A3012 RMK A01 T01610113  RH  074%=      5-min Rain = 0
KSGV 120640Z 30003KT 16/11 A3012 RMK A01 T01610114  RH  075%=      5-min Rain = 0
KSGV 120645Z 31003KT 16/12 A3012 RMK A01 T01600116  RH  076%=      5-min Rain = 0
KSGV 120650Z 31001KT 16/11 A3012 RMK A01 T01590113  RH  076%=      5-min Rain = 0
KSGV 120655Z 30001KT 16/11 A3012 RMK A01 T01580112  RH  075%=      5-min Rain = 0
KSGV 120700Z 29001KT 16/11 A3012 RMK A01 T01570113  RH  076%=      5-min Rain = 0
KSGV 120705Z 29003KT 16/11 A3012 RMK A01 T01570114  RH  077%=      5-min Rain = 0
KSGV 120710Z 29003KT 16/11 A3012 RMK A01 T01580114  RH  077%=      5-min Rain = 0
KSGV 120715Z 30003KT 16/11 A3012 RMK A01 T01580114  RH  076%=      5-min Rain = 0
KSGV 120720Z 30002KT 16/11 A3012 RMK A01 T01580114  RH  077%=      5-min Rain = 0
KSGV 120725Z 31001KT 16/12 A3012 RMK A01 T01570115  RH  077%=      5-min Rain = 0
KSGV 120730Z 32000KT 16/12 A3011 RMK A01 T01570115  RH  078%=      5-min Rain = 0
KSGV 120735Z 33000KT 16/11 A3011 RMK A01 T01550114  RH  078%=      5-min Rain = 0
KSGV 120740Z 35001KT 15/12 A3011 RMK A01 T01540116  RH  080%=      5-min Rain = 0
KSGV 120745Z 33001KT 15/12 A3011 RMK A01 T01540116  RH  079%=      5-min Rain = 0
KSGV 120750Z 32001KT 15/12 A3011 RMK A01 T01510115  RH  081%=      5-min Rain = 0
KSGV 120755Z 31002KT 15/12 A3011 RMK A01 T01500117  RH  082%=      5-min Rain = 0
KSGV 120800Z 34002KT 15/12 A3011 RMK A01 T01520120  RH  083%=      5-min Rain = 0
KSGV 120805Z 31002KT 15/12 A3011 RMK A01 T01500115  RH  081%=      5-min Rain = 0
KSGV 120810Z 33002KT 15/11 A3011 RMK A01 T01480114  RH  082%=      5-min Rain = 0
KSGV 120815Z 31001KT 15/12 A3011 RMK A01 T01470115  RH  082%=      5-min Rain = 0
KSGV 120820Z 30002KT 15/12 A3011 RMK A01 T01460115  RH  083%=      5-min Rain = 0
KSGV 120825Z 31003KT 14/11 A3011 RMK A01 T01420111  RH  083%=      5-min Rain = 0
KSGV 120830Z 32003KT 14/11 A3011 RMK A01 T01400110  RH  084%=      5-min Rain = 0
KSGV 120835Z 31003KT 14/11 A3011 RMK A01 T01400109  RH  083%=      5-min Rain = 0
KSGV 120840Z 31003KT 14/11 A3011 RMK A01 T01430107  RH  081%=      5-min Rain = 0
KSGV 120845Z 31003KT 15/11 A301 RMK A01 T01450107  RH  079%=      5-min Rain = 0
KSGV 120850Z 31002KT 15/11 A301 RMK A01 T01460105  RH  078%=      5-min Rain = 0
KSGV 120855Z 33003KT 15/10 A301 RMK A01 T01480103  RH  075%=      5-min Rain = 0
KSGV 120900Z 32004KT 15/10 A301 RMK A01 T01500103  RH  075%=      5-min Rain = 0
KSGV 120905Z 33004KT 15/11 A301 RMK A01 T01500106  RH  076%=      5-min Rain = 0
KSGV 120910Z 33004KT 15/11 A301 RMK A01 T01490107  RH  077%=      5-min Rain = 0
KSGV 120915Z 33003KT 15/11 A301 RMK A01 T01480109  RH  079%=      5-min Rain = 0
KSGV 120920Z 34003KT 15/11 A301 RMK A01 T01460109  RH  079%=      5-min Rain = 0
KSGV 120925Z 36002KT 14/11 A3009 RMK A01 T01440106  RH  079%=      5-min Rain = 0
KSGV 120930Z 02002KT 14/10 A3009 RMK A01 T01430104  RH  079%=      5-min Rain = 0
KSGV 120935Z 01003KT 14/10 A3009 RMK A01 T01430102  RH  078%=      5-min Rain = 0
KSGV 120940Z 00003KT 15/10 A3009 RMK A01 T01470099  RH  074%=      5-min Rain = 0
KSGV 120945Z 36003KT 15/10 A3009 RMK A01 T01480097  RH  073%=      5-min Rain = 0
KSGV 120950Z 35004KT 15/10 A3009 RMK A01 T01510097  RH  071%=      5-min Rain = 0
KSGV 120955Z 34004KT 15/10 A3009 RMK A01 T01500096  RH  072%=      5-min Rain = 0
KSGV 121000Z 35004KT 15/10 A3009 RMK A01 T01470097  RH  073%=      5-min Rain = 0
KSGV 121005Z 35004KT 14/10 A3009 RMK A01 T01440097  RH  075%=      5-min Rain = 0
KSGV 121010Z 35003KT 14/10 A3009 RMK A01 T01430096  RH  075%=      5-min Rain = 0
KSGV 121015Z 34003KT 14/10 A3009 RMK A01 T01420097  RH  075%=      5-min Rain = 0
KSGV 121020Z 34004KT 14/10 A3009 RMK A01 T01400099  RH  077%=      5-min Rain = 0
KSGV 121025Z 34005KT 14/10 A3009 RMK A01 T01360099  RH  079%=      5-min Rain = 0
KSGV 121030Z 34004KT 14/10 A3009 RMK A01 T01350099  RH  080%=      5-min Rain = 0
KSGV 121035Z 34004KT 14/10 A3009 RMK A01 T01350100  RH  081%=      5-min Rain = 0
KSGV 121040Z 33004KT 14/10 A3008 RMK A01 T01350099  RH  080%=      5-min Rain = 0
KSGV 121045Z 32003KT 13/10 A3009 RMK A01 T01330098  RH  080%=      5-min Rain = 0
KSGV 121050Z 33003KT 13/10 A3009 RMK A01 T01320098  RH  081%=      5-min Rain = 0
KSGV 121055Z 34004KT 13/10 A3009 RMK A01 T01330099  RH  082%=      5-min Rain = 0
KSGV 121100Z 35004KT 13/10 A3009 RMK A01 T01340099  RH  081%=      5-min Rain = 0
KSGV 121105Z 35004KT 14/10 A3009 RMK A01 T01350098  RH  080%=      5-min Rain = 0
KSGV 121110Z 34002KT 14/10 A3009 RMK A01 T01350099  RH  080%=      5-min Rain = 0
KSGV 121115Z 33004KT 14/10 A3009 RMK A01 T01360099  RH  080%=      5-min Rain = 0
KSGV 121120Z 33005KT 14/10 A3009 RMK A01 T01370100  RH  080%=      5-min Rain = 0
KSGV 121125Z 34005KT 14/10 A3009 RMK A01 T01350100  RH  081%=      5-min Rain = 0
KSGV 121130Z 34005KT 13/10 A3009 RMK A01 T01340100  RH  081%=      5-min Rain = 0
KSGV 121135Z 35005KT 13/10 A3009 RMK A01 T01340098  RH  080%=      5-min Rain = 0
KSGV 121140Z 00004KT 13/10 A3009 RMK A01 T01330096  RH  080%=      5-min Rain = 0
KSGV 121145Z 35005KT 14/10 A3009 RMK A01 T01350097  RH  079%=      5-min Rain = 0
KSGV 121150Z 35005KT 14/10 A3009 RMK A01 T01370096  RH  078%=      5-min Rain = 0
KSGV 121155Z 34004KT 14/10 A3009 RMK A01 T01360096  RH  078%=      5-min Rain = 0
KSGV 121200Z 35003KT 14/10 A3009 RMK A01 T01350097  RH  079%=      5-min Rain = 0
KSGV 121205Z 35004KT 13/10 A3009 RMK A01 T01340096  RH  079%=      5-min Rain = 0
KSGV 121210Z 35003KT 13/10 A301 RMK A01 T01330095  RH  079%=      5-min Rain = 0
KSGV 121215Z 35003KT 13/10 A3009 RMK A01 T01330095  RH  079%=      5-min Rain = 0
KSGV 121220Z 35002KT 13/10 A3009 RMK A01 T01320096  RH  080%=      5-min Rain = 0
KSGV 121225Z 35003KT 13/10 A3009 RMK A01 T01310096  RH  081%=      5-min Rain = 0
KSGV 121230Z 36002KT 13/10 A3009 RMK A01 T01280095  RH  082%=      5-min Rain = 0
KSGV 121235Z 35002KT 13/10 A3009 RMK A01 T01270097  RH  083%=      5-min Rain = 0
KSGV 121240Z 35003KT 13/10 A301 RMK A01 T01260097  RH  084%=      5-min Rain = 0
KSGV 121245Z 35003KT 13/10 A301 RMK A01 T01260098  RH  084%=      5-min Rain = 0
KSGV 121250Z 35002KT 13/10 A301 RMK A01 T01260098  RH  084%=      5-min Rain = 0
KSGV 121255Z 35002KT 13/10 A301 RMK A01 T01270098  RH  084%=      5-min Rain = 0
KSGV 121300Z 34002KT 13/10 A301 RMK A01 T01290099  RH  083%=      5-min Rain = 0
KSGV 121305Z 34003KT 13/10 A301 RMK A01 T01310101  RH  083%=      5-min Rain = 0
KSGV 121310Z 33004KT 13/10 A301 RMK A01 T01340104  RH  083%=      5-min Rain = 0
KSGV 121315Z 34003KT 14/11 A301 RMK A01 T01370105  RH  082%=      5-min Rain = 0
KSGV 121320Z 34003KT 14/11 A301 RMK A01 T01400106  RH  081%=      5-min Rain = 0
KSGV 121325Z 34002KT 14/11 A301 RMK A01 T01440108  RH  080%=      5-min Rain = 0
KSGV 121330Z 34002KT 15/11 A301 RMK A01 T01490107  RH  078%=      5-min Rain = 0
KSGV 121335Z 34002KT 15/11 A301 RMK A01 T01530105  RH  074%=      5-min Rain = 0
KSGV 121340Z 33002KT 16/10 A301 RMK A01 T01570104  RH  072%=      5-min Rain = 0
KSGV 121345Z 34003KT 16/10 A301 RMK A01 T01610104  RH  070%=      5-min Rain = 0
KSGV 121350Z 35003KT 17/10 A301 RMK A01 T01670104  RH  068%=      5-min Rain = 0
KSGV 121355Z 35003KT 17/10 A301 RMK A01 T01730102  RH  064%=      5-min Rain = 0
KSGV 121400Z 35004KT 18/10 A301 RMK A01 T01780101  RH  062%=      5-min Rain = 0
KSGV 121405Z 35004KT 18/10 A301 RMK A01 T01810102  RH  061%=      5-min Rain = 0
KSGV 121410Z 34004KT 19/10 A3011 RMK A01 T01850102  RH  060%=      5-min Rain = 0
KSGV 121415Z 34004KT 19/10 A3011 RMK A01 T01870104  RH  059%=      5-min Rain = 0
KSGV 121420Z 35003KT 19/11 A3011 RMK A01 T01900105  RH  059%=      5-min Rain = 0
KSGV 121425Z 35003KT 19/11 A3011 RMK A01 T01930105  RH  057%=      5-min Rain = 0
KSGV 121430Z 33004KT 20/11 A3011 RMK A01 T01970106  RH  057%=      5-min Rain = 0
KSGV 121435Z 34003KT 20/11 A3011 RMK A01 T01990108  RH  057%=      5-min Rain = 0
KSGV 121440Z 34003KT 20/11 A3011 RMK A01 T02040108  RH  055%=      5-min Rain = 0
KSGV 121445Z 34002KT 21/11 A3011 RMK A01 T02100109  RH  053%=      5-min Rain = 0
KSGV 121450Z 33002KT 22/11 A3011 RMK A01 T02150107  RH  051%=      5-min Rain = 0
KSGV 121455Z 33002KT 22/11 A3011 RMK A01 T02190108  RH  050%=      5-min Rain = 0
KSGV 121500Z 31003KT 23/11 A3011 RMK A01 T02250106  RH  048%=      5-min Rain = 0
KSGV 121505Z 30003KT 23/11 A3011 RMK A01 T02280106  RH  047%=      5-min Rain = 0
KSGV 121510Z 30002KT 23/11 A301 RMK A01 T02300108  RH  047%=      5-min Rain = 0
KSGV 121515Z 29002KT 24/11 A301 RMK A01 T02360108  RH  045%=      5-min Rain = 0
KSGV 121520Z 26003KT 24/11 A301 RMK A01 T02430105  RH  043%=      5-min Rain = 0
KSGV 121525Z 25002KT 25/10 A301 RMK A01 T02490100  RH  040%=      5-min Rain = 0
KSGV 121530Z 24004KT 26/09 A301 RMK A01 T02560093  RH  036%=      5-min Rain = 0
KSGV 121535Z 23005KT 26/09 A301 RMK A01 T02590090  RH  035%=      5-min Rain = 0
KSGV 121540Z 23005KT 26/09 A301 RMK A01 T02600094  RH  036%=      5-min Rain = 0
KSGV 121545Z 22005KT 26/10 A301 RMK A01 T02620095  RH  036%=      5-min Rain = 0
KSGV 121550Z 23005KT 26/10 A301 RMK A01 T02620097  RH  036%=      5-min Rain = 0
KSGV 121555Z 24004KT 27/09 A301 RMK A01 T02660092  RH  034%=      5-min Rain = 0
KSGV 121600Z 23004KT 27/09 A301 RMK A01 T02700092  RH  033%=      5-min Rain = 0
KSGV 121605Z 24003KT 27/09 A301 RMK A01 T02730090  RH  032%=      5-min Rain = 0
KSGV 121610Z 25004KT 28/09 A301 RMK A01 T02760088  RH  031%=      5-min Rain = 0
KSGV 121615Z 26004KT 28/09 A3009 RMK A01 T02800087  RH  030%=      5-min Rain = 0
KSGV 121620Z 29004KT 28/09 A3009 RMK A01 T02830085  RH  029%=      5-min Rain = 0
KSGV 121625Z 26004KT 29/09 A3009 RMK A01 T02850085  RH  029%=      5-min Rain = 0
KSGV 121630Z 25003KT 28/09 A3009 RMK A01 T02840085  RH  029%=      5-min Rain = 0
KSGV 121635Z 31003KT 29/09 A3009 RMK A01 T02870086  RH  029%=      5-min Rain = 0
KSGV 121640Z 33003KT 29/09 A3009 RMK A01 T02900089  RH  029%=      5-min Rain = 0
KSGV 121645Z 02002KT 30/09 A3009 RMK A01 T02950087  RH  028%=      5-min Rain = 0
KSGV 121650Z 27003KT 30/09 A3009 RMK A01 T02980086  RH  027%=      5-min Rain = 0
KSGV 121655Z 29004KT 30/09 A3009 RMK A01 T02970086  RH  027%=      5-min Rain = 0
KSGV 121700Z 28003KT 30/09 A3009 RMK A01 T02960086  RH  027%=      5-min Rain = 0
KSGV 121705Z 33003KT 30/09 A3009 RMK A01 T02970086  RH  027%=      5-min Rain = 0
KSGV 121710Z 08002KT 30/09 A3008 RMK A01 T02970087  RH  027%=      5-min Rain = 0
KSGV 121715Z 32004KT 30/09 A3008 RMK A01 T03030086  RH  026%=      5-min Rain = 0
KSGV 121720Z 28003KT 30/09 A3008 RMK A01 T03040085  RH  026%=      5-min Rain = 0
KSGV 121725Z 29004KT 31/09 A3008 RMK A01 T03060086  RH  026%=      5-min Rain = 0
KSGV 121730Z 26003KT 31/09 A3008 RMK A01 T03090087  RH  026%=      5-min Rain = 0
KSGV 121735Z 27004KT 31/09 A3008 RMK A01 T03120087  RH  025%=      5-min Rain = 0
KSGV 121740Z 25003KT 31/09 A3007 RMK A01 T03090087  RH  026%=      5-min Rain = 0
KSGV 121745Z 34003KT 31/09 A3007 RMK A01 T03110085  RH  025%=      5-min Rain = 0
KSGV 121750Z 33005KT 31/09 A3007 RMK A01 T03130086  RH  025%=      5-min Rain = 0
KSGV 121755Z 32004KT 31/09 A3007 RMK A01 T03140086  RH  025%=      5-min Rain = 0
KSGV 121800Z 29004KT 32/09 A3007 RMK A01 T03150085  RH  024%=      5-min Rain = 0
KSGV 121805Z 35003G8KT 31/08 A3006 RMK A01 T03140083  RH  024%=      5-min Rain = 0
KSGV 121810Z 02005KT 32/08 A3006 RMK A01 T03170081  RH  023%=      5-min Rain = 0
KSGV 121815Z 03002G8KT 32/08 A3006 RMK A01 T03200082  RH  023%=      5-min Rain = 0
KSGV 121820Z 03005KT 32/08 A3006 RMK A01 T03200081  RH  023%=      5-min Rain = 0
KSGV 121825Z 08003KT 32/08 A3005 RMK A01 T03210083  RH  023%=      5-min Rain = 0
KSGV 121830Z 02003KT 32/08 A3005 RMK A01 T03230081  RH  023%=      5-min Rain = 0
KSGV 121835Z 02006KT 33/08 A3005 RMK A01 T03260078  RH  022%=      5-min Rain = 0
KSGV 121840Z 06004KT 33/08 A3005 RMK A01 T03260077  RH  022%=      5-min Rain = 0
KSGV 121845Z 32006KT 32/07 A3005 RMK A01 T03230074  RH  022%=      5-min Rain = 0
KSGV 121850Z 29004KT 32/07 A3004 RMK A01 T03230074  RH  022%=      5-min Rain = 0
KSGV 121855Z 19003KT 32/07 A3004 RMK A01 T03240073  RH  021%=      5-min Rain = 0
KSGV 121900Z 17003KT 33/07 A3004 RMK A01 T03270074  RH  021%=      5-min Rain = 0
KSGV 121905Z 30003KT 33/07 A3004 RMK A01 T03280072  RH  021%=      5-min Rain = 0
KSGV 121910Z 28002KT 33/07 A3003 RMK A01 T03270072  RH  021%=      5-min Rain = 0
KSGV 121915Z 26003KT 33/07 A3003 RMK A01 T03290074  RH  021%=      5-min Rain = 0
KSGV 121920Z 30003KT 33/08 A3003 RMK A01 T03290076  RH  021%=      5-min Rain = 0
KSGV 121925Z 30007KT 33/08 A3003 RMK A01 T03310076  RH  021%=      5-min Rain = 0
KSGV 121930Z 31004G9KT 33/07 A3002 RMK A01 T03330073  RH  020%=      5-min Rain = 0
KSGV 121935Z 33002KT 33/07 A3002 RMK A01 T03330073  RH  020%=      5-min Rain = 0
KSGV 121940Z 32002G9KT 33/07 A3002 RMK A01 T03330073  RH  020%=      5-min Rain = 0
KSGV 121945Z 01004G9KT 33/07 A3001 RMK A01 T03330074  RH  020%=      5-min Rain = 0
KSGV 121950Z 11002KT 34/08 A3001 RMK A01 T03360076  RH  020%=      5-min Rain = 0
KSGV 121955Z 04004KT 34/08 A3001 RMK A01 T03390075  RH  020%=      5-min Rain = 0
KSGV 122000Z 35005G11KT 33/07 A3001 RMK A01 T03330073  RH  020%=      5-min Rain = 0
KSGV 122005Z 36004G9KT 33/07 A30 RMK A01 T03290073  RH  021%=      5-min Rain = 0
KSGV 122010Z 02005KT 33/07 A30 RMK A01 T03340073  RH  020%=      5-min Rain = 0
KSGV 122015Z 05002KT 33/07 A30 RMK A01 T03330071  RH  020%=      5-min Rain = 0
KSGV 122020Z 05005KT 33/07 A2999 RMK A01 T03340072  RH  020%=      5-min Rain = 0
KSGV 122025Z 07004KT 34/07 A2999 RMK A01 T03360070  RH  020%=      5-min Rain = 0
KSGV 122030Z 11004KT 34/07 A2999 RMK A01 T03360071  RH  020%=      5-min Rain = 0
KSGV 122035Z 15003KT 34/07 A2998 RMK A01 T03360069  RH  019%=      5-min Rain = 0
KSGV 122040Z 35002KT 33/07 A2998 RMK A01 T03340069  RH  020%=      5-min Rain = 0
KSGV 122045Z 35006KT 34/06 A2998 RMK A01 T03420062  RH  018%=      5-min Rain = 0
KSGV 122050Z 30004KT 34/06 A2998 RMK A01 T03420060  RH  018%=      5-min Rain = 0
KSGV 122055Z 31005G10KT 34/06 A2998 RMK A01 T03380059  RH  018%=      5-min Rain = 0
KSGV 122100Z 34005G12KT 34/06 A2997 RMK A01 T03410060  RH  018%=      5-min Rain = 0
KSGV 122105Z 31002G7KT 34/06 A2997 RMK A01 T03390060  RH  018%=      5-min Rain = 0
KSGV 122110Z 28005KT 34/06 A2997 RMK A01 T03390062  RH  018%=      5-min Rain = 0
KSGV 122115Z 35008KT 34/06 A2997 RMK A01 T03400061  RH  018%=      5-min Rain = 0
KSGV 122120Z 31005KT 34/06 A2997 RMK A01 T03420061  RH  018%=      5-min Rain = 0
KSGV 122125Z 30003KT 34/06 A2996 RMK A01 T03390059  RH  018%=      5-min Rain = 0
KSGV 122130Z 27002KT 34/06 A2996 RMK A01 T03410060  RH  018%=      5-min Rain = 0
KSGV 122135Z 26002KT 35/06 A2996 RMK A01 T03460059  RH  017%=      5-min Rain = 0
KSGV 122140Z 02004KT 35/06 A2996 RMK A01 T03470057  RH  017%=      5-min Rain = 0
KSGV 122145Z 17002KT 34/06 A2995 RMK A01 T03420058  RH  017%=      5-min Rain = 0
KSGV 122150Z 28004G10KT 34/06 A2995 RMK A01 T03420061  RH  018%=      5-min Rain = 0
KSGV 122155Z 29005G11KT 34/06 A2995 RMK A01 T03410062  RH  018%=      5-min Rain = 0
KSGV 122200Z 30005KT 34/06 A2995 RMK A01 T03380061  RH  018%=      5-min Rain = 0
KSGV 122205Z 32003KT 34/06 A2995 RMK A01 T03350059  RH  018%=      5-min Rain = 0
KSGV 122210Z 30002KT 33/06 A2995 RMK A01 T03340055  RH  018%=      5-min Rain = 0
KSGV 122215Z 01002KT 33/06 A2995 RMK A01 T03320056  RH  018%=      5-min Rain = 0
KSGV 122220Z 07001KT 33/06 A2995 RMK A01 T03310057  RH  018%=      5-min Rain = 0
KSGV 122225Z 07003G10KT 33/06 A2995 RMK A01 T03310057  RH  018%=      5-min Rain = 0
KSGV 122230Z 33004KT 33/06 A2994 RMK A01 T03300062  RH  019%=      5-min Rain = 0
KSGV 122235Z 32003KT 33/06 A2994 RMK A01 T03300061  RH  019%=      5-min Rain = 0
KSGV 122240Z 35006KT 33/06 A2994 RMK A01 T03290057  RH  019%=      5-min Rain = 0
KSGV 122245Z 35006KT 33/06 A2994 RMK A01 T03300057  RH  018%=      5-min Rain = 0
KSGV 122250Z 35005KT 34/05 A2994 RMK A01 T03360054  RH  017%=      5-min Rain = 0
KSGV 122255Z 35003KT 34/05 A2994 RMK A01 T03370053  RH  017%=      5-min Rain = 0
KSGV 122300Z 03001KT 34/05 A2994 RMK A01 T03390052  RH  017%=      5-min Rain = 0
KSGV 122305Z 32002KT 34/06 A2994 RMK A01 T03370056  RH  018%=      5-min Rain = 0
KSGV 122310Z 26002KT 34/06 A2994 RMK A01 T03360055  RH  018%=      5-min Rain = 0
KSGV 122315Z 29003KT 33/06 A2994 RMK A01 T03320057  RH  018%=      5-min Rain = 0
KSGV 122320Z 06004KT 33/06 A2994 RMK A01 T03270056  RH  019%=      5-min Rain = 0
KSGV 122325Z 09001KT 33/06 A2993 RMK A01 T03260057  RH  019%=      5-min Rain = 0
KSGV 122330Z 04001KT 33/06 A2993 RMK A01 T03270058  RH  019%=      5-min Rain = 0
KSGV 122335Z 04002KT 33/06 A2993 RMK A01 T03270056  RH  019%=      5-min Rain = 0
KSGV 122340Z 08002KT 33/06 A2993 RMK A01 T03310055  RH  018%=      5-min Rain = 0
KSGV 122345Z 10002KT 33/06 A2993 RMK A01 T03320055  RH  018%=      5-min Rain = 0
KSGV 122350Z 04002KT 33/06 A2993 RMK A01 T03290056  RH  019%=      5-min Rain = 0
KSGV 122355Z 02002KT 33/05 A2993 RMK A01 T03250053  RH  018%=      5-min Rain = 0
KSGV 130000Z 03001KT 32/06 A2993 RMK A01 T03240056  RH  019%=      5-min Rain = 0
KSGV 130005Z 08001KT 32/06 A2993 RMK A01 T03220060  RH  020%=      5-min Rain = 0
KSGV 130010Z 12001KT 32/06 A2992 RMK A01 T03210062  RH  020%=      5-min Rain = 0
KSGV 130015Z 11002KT 32/07 A2992 RMK A01 T03190065  RH  021%=      5-min Rain = 0
KSGV 130020Z 11002KT 32/06 A2992 RMK A01 T03170061  RH  020%=      5-min Rain = 0
KSGV 130025Z 11002KT 32/06 A2992 RMK A01 T03160062  RH  021%=      5-min Rain = 0
KSGV 130030Z 12002KT 32/07 A2992 RMK A01 T03150068  RH  022%=      5-min Rain = 0
KSGV 130035Z 14002KT 32/07 A2992 RMK A01 T03150071  RH  022%=      5-min Rain = 0
KSGV 130040Z 14002KT 31/07 A2992 RMK A01 T03140072  RH  022%=      5-min Rain = 0
KSGV 130045Z 12002KT 31/08 A2992 RMK A01 T03120075  RH  023%=      5-min Rain = 0
KSGV 130050Z 11002KT 31/07 A2992 RMK A01 T03100072  RH  023%=      5-min Rain = 0
KSGV 130055Z 11003KT 31/08 A2992 RMK A01 T03070075  RH  024%=      5-min Rain = 0
KSGV 130100Z 12002KT 31/08 A2992 RMK A01 T03050077  RH  024%=      5-min Rain = 0
KSGV 130105Z 12002KT 30/08 A2992 RMK A01 T03030077  RH  025%=      5-min Rain = 0
KSGV 130110Z 11002KT 30/08 A2992 RMK A01 T03000078  RH  025%=      5-min Rain = 0
KSGV 130115Z 12002KT 30/08 A2992 RMK A01 T02970080  RH  026%=      5-min Rain = 0
KSGV 130120Z 12002KT 30/08 A2992 RMK A01 T02950080  RH  026%=      5-min Rain = 0
KSGV 130125Z 12002KT 29/08 A2992 RMK A01 T02930079  RH  027%=      5-min Rain = 0
KSGV 130130Z 12002KT 29/08 A2992 RMK A01 T02900081  RH  027%=      5-min Rain = 0
KSGV 130135Z 08002KT 29/08 A2992 RMK A01 T02870083  RH  028%=      5-min Rain = 0
KSGV 130140Z 07002KT 28/09 A2993 RMK A01 T02790089  RH  031%=      5-min Rain = 0
KSGV 130145Z 08002KT 28/08 A2993 RMK A01 T02780081  RH  029%=      5-min Rain = 0
KSGV 130150Z 08002KT 28/08 A2993 RMK A01 T02800080  RH  029%=      5-min Rain = 0
KSGV 130155Z 10002KT 28/08 A2993 RMK A01 T02800082  RH  029%=      5-min Rain = 0
KSGV 130200Z 12002KT 28/10 A2993 RMK A01 T02760096  RH  033%=      5-min Rain = 0
KSGV 130205Z 21003KT 26/11 A2994 RMK A01 T02600110  RH  040%=      5-min Rain = 0
KSGV 130210Z 19001KT 25/11 A2994 RMK A01 T02530108  RH  041%=      5-min Rain = 0
KSGV 130215Z 15001KT 25/10 A2994 RMK A01 T02510103  RH  040%=      5-min Rain = 0
KSGV 130220Z 14000KT 25/10 A2994 RMK A01 T02510104  RH  040%=      5-min Rain = 0
KSGV 130225Z 06000KT 25/10 A2994 RMK A01 T02510104  RH  040%=      5-min Rain = 0
KSGV 130230Z 06001KT 25/11 A2994 RMK A01 T02500105  RH  041%=      5-min Rain = 0
KSGV 130235Z 05001KT 25/10 A2994 RMK A01 T02450100  RH  041%=      5-min Rain = 0
KSGV 130240Z 03001KT 24/10 A2994 RMK A01 T02440095  RH  039%=      5-min Rain = 0
KSGV 130245Z 35002KT 24/11 A2994 RMK A01 T02410107  RH  043%=      5-min Rain = 0
KSGV 130250Z 34001KT 24/11 A2994 RMK A01 T02350111  RH  046%=      5-min Rain = 0
KSGV 130255Z 13000KT 23/11 A2994 RMK A01 T02320106  RH  046%=      5-min Rain = 0
KSGV 130300Z 11001KT 23/10 A2994 RMK A01 T02310101  RH  045%=      5-min Rain = 0
KSGV 130305Z 08003KT 23/10 A2994 RMK A01 T02320097  RH  043%=      5-min Rain = 0
KSGV 130310Z 07003KT 23/10 A2995 RMK A01 T02310096  RH  043%=      5-min Rain = 0
KSGV 130315Z 07002KT 23/10 A2995 RMK A01 T02300097  RH  043%=      5-min Rain = 0
KSGV 130320Z 07002KT 23/11 A2995 RMK A01 T02270111  RH  049%=      5-min Rain = 0
KSGV 130325Z 06001KT 22/13 A2995 RMK A01 T02210125  RH  056%=      5-min Rain = 0
KSGV 130330Z 06002KT 22/12 A2995 RMK A01 T02180120  RH  055%=      5-min Rain = 0
KSGV 130335Z 06003KT 22/11 A2995 RMK A01 T02180112  RH  052%=      5-min Rain = 0
KSGV 130340Z 06003KT 22/11 A2995 RMK A01 T02200105  RH  049%=      5-min Rain = 0
KSGV 130345Z 06003KT 22/10 A2995 RMK A01 T02240099  RH  046%=      5-min Rain = 0
KSGV 130350Z 06003KT 23/10 A2995 RMK A01 T02290097  RH  044%=      5-min Rain = 0
KSGV 130355Z 06001KT 23/12 A2995 RMK A01 T02280115  RH  050%=      5-min Rain = 0
KSGV 130400Z 04000KT 22/13 A2995 RMK A01 T02190131  RH  059%=      5-min Rain = 0
KSGV 130405Z 04000KT 22/12 A2995 RMK A01 T02150123  RH  057%=      5-min Rain = 0
KSGV 130410Z 04000KT 22/13 A2995 RMK A01 T02150125  RH  057%=      5-min Rain = 0
KSGV 130415Z 00000KT 22/13 A2995 RMK A01 T02160125  RH  057%=      5-min Rain = 0
KSGV 130420Z 02000KT 22/13 A2995 RMK A01 T02170131  RH  059%=      5-min Rain = 0
KSGV 130425Z 01001KT 22/13 A2995 RMK A01 T02160132  RH  060%=      5-min Rain = 0
KSGV 130430Z 02001KT 22/14 A2995 RMK A01 T02150136  RH  062%=      5-min Rain = 0
KSGV 130435Z 05003KT 22/13 A2995 RMK A01 T02160125  RH  057%=      5-min Rain = 0
KSGV 130440Z 07003KT 22/11 A2995 RMK A01 T02220110  RH  050%=      5-min Rain = 0
KSGV 130445Z 08003KT 23/11 A2995 RMK A01 T02300106  RH  046%=      5-min Rain = 0
KSGV 130450Z 11002KT 23/09 A2995 RMK A01 T02340092  RH  041%=      5-min Rain = 0
KSGV 130455Z 10003KT 24/09 A2995 RMK A01 T02390088  RH  039%=      5-min Rain = 0

Page generated in 0.014 seconds.